KDYR  Dyersburg Regional Airport

Add Bookmark

Dyersburg, Tennessee, United States

Status Useage
Operational Public
Latitude Longitude
35° 59' 52" N 89° 24' 23" W
35.997972 -89.406583
Local (DST -5) UTC (GMT -6)
Oct 25, 2014 10:16 Oct 25, 2014 15:16
Sunrise-Sunset Local UTC
Begin Civil Twilight 06:46 11:46
Sunrise 07:13 12:13
Sunset 06:10 23:10
End Civil Twilight 06:36 23:36

Current Weather

METAR Observed VFR
KDYR 251455Z 25007KT 10SM SCT050 18/11 A3010 Sat, Oct 25, 2014 @ 14:55 UTC
(21 Minutes ago)
Visual Flight Rules
Wind Visibility Clouds Conditions
250° at 7 knots (8 mph) 10 statute miles
  • Scattered at 5,000' AGL
  • No significant weather
Temperatures Readings Precipitation
Current Temp 18°C (64°F)
Dewpoint 11°C (52°F)
Humidity 64%
Altimeter 30.1"Hg
Sea Level Pressure 1019mb
Field Elevation 337'
None Recorded

Additional weather within a 50nm radius of KDYR

Map ICAO Location
KHKA 20.9nm W (261°)
KBYH 26.2nm W (266°)
KUCY 30.7nm N (042°)
KMKL 33.8nm S (135°)
KNQA 44.6nm S (211°)

24 Hour Weather History

Loading
-

24 Hour Weather Graphs

Loading
-

CheckWX.com is intended as a tool to help pilots better visualize weather data. It is not intended as a substitute for an official weather briefing obtained from a Flight Service Station. CheckWX.com does not meet the FAA requirements for an official pre-flight weather briefing. Therefore, it's important that pilots still call and obtain an official FSS pre-flight weather briefing.